Time;durP1;ratioP1;P1;durP2;ratioP2;P2;SDS_P1;SDS_P2;PMS_P1;PMS_P2;Temp;Humidity;BMP_temperature;BMP_pressure;BME280_temperature;BME280_humidity;BME280_pressure;Samples;Min_cycle;Max_cycle;Signal;HPM_P1;HPM_P2
2022/10/11 00:02:11;;;;;;;3.85;1.92;;;;;;;;;;5095492;28;20193;-82
2022/10/11 00:04:39;;;;;;;2.90;1.67;;;;;;;;;;5096030;28;20212;-80
2022/10/11 00:07:06;;;;;;;3.85;1.58;;;;;;;;;;5095147;28;20291;-80
2022/10/11 00:09:34;;;;;;;5.88;2.40;;;;;;;;;;5095187;28;20232;-80
2022/10/11 00:12:03;;;;;;;2.08;1.55;;;;;;;;;;5096493;28;20587;-81
2022/10/11 00:14:32;;;;;;;5.40;2.28;;;;;;;;;;5096450;28;20311;-81
2022/10/11 00:17:00;;;;;;;3.05;1.67;;;;;;;;;;5096273;28;20200;-81
2022/10/11 00:19:27;;;;;;;4.03;1.70;;;;;;;;;;5096861;28;20231;-81
2022/10/11 00:21:55;;;;;;;4.65;1.40;;;;;;;;;;5098934;28;20287;-80
2022/10/11 00:24:22;;;;;;;3.60;2.28;;;;;;;;;;5099628;28;20307;-80
2022/10/11 00:26:50;;;;;;;4.53;1.70;;;;;;;;;;5099152;28;20208;-80
2022/10/11 00:29:19;;;;;;;3.90;2.03;;;;;;;;;;5098960;28;20304;-79
2022/10/11 00:31:46;;;;;;;4.07;1.30;;;;;;;;;;5099068;28;20251;-80
2022/10/11 00:34:16;;;;;;;2.72;1.48;;;;;;;;;;5098511;28;20192;-80
2022/10/11 00:36:44;;;;;;;3.45;1.70;;;;;;;;;;5098133;28;20637;-80
2022/10/11 00:39:12;;;;;;;4.97;1.65;;;;;;;;;;5098125;28;20200;-80
2022/10/11 00:41:39;;;;;;;3.35;1.75;;;;;;;;;;5097801;28;20295;-80
2022/10/11 00:44:16;;;;;;;3.47;1.95;;;;;;;;;;5097468;28;20291;-81
2022/10/11 00:46:50;;;;;;;2.22;1.40;;;;;;;;;;5097846;28;20276;-80
2022/10/11 00:49:28;;;;;;;2.47;1.30;;;;;;;;;;5097903;28;20189;-80
2022/10/11 00:51:58;;;;;;;4.90;1.50;;;;;;;;;;5097787;28;20232;-81
2022/10/11 00:54:29;;;;;;;1.55;1.27;;;;;;;;;;5097310;28;20688;-81
2022/10/11 00:57:00;;;;;;;2.38;1.40;;;;;;;;;;5097207;28;20185;-81
2022/10/11 00:59:31;;;;;;;5.15;1.55;;;;;;;;;;5097301;28;20694;-81
2022/10/11 01:02:00;;;;;;;3.85;1.98;;;;;;;;;;5096875;28;20210;-81
2022/10/11 01:04:28;;;;;;;4.82;1.73;;;;;;;;;;5097174;28;20310;-81
2022/10/11 01:06:55;;;;;;;3.45;1.90;;;;;;;;;;5097059;28;20403;-80
2022/10/11 01:09:23;;;;;;;2.00;1.52;;;;;;;;;;5097265;28;20224;-81
2022/10/11 01:11:52;;;;;;;2.50;1.58;;;;;;;;;;5098013;28;20628;-80
2022/10/11 01:15:04;;;;;;;2.85;1.67;;;;;;;;;;5097377;28;20316;-82
2022/10/11 01:17:40;;;;;;;1.98;1.38;;;;;;;;;;5096396;28;20208;-81
2022/10/11 01:20:36;;;;;;;7.85;1.88;;;;;;;;;;5097271;28;20592;-82
2022/10/11 01:23:56;;;;;;;1.80;1.67;;;;;;;;;;5094942;28;20212;-80
2022/10/11 01:26:53;;;;;;;1.17;1.00;;;;;;;;;;5097382;28;20533;-79
2022/10/11 01:29:29;;;;;;;1.83;1.27;;;;;;;;;;5097031;28;20572;-80
2022/10/11 01:32:06;;;;;;;1.80;1.50;;;;;;;;;;5097049;28;20671;-80
2022/10/11 01:34:38;;;;;;;1.52;1.35;;;;;;;;;;5097178;28;20652;-80
2022/10/11 01:37:10;;;;;;;1.75;1.35;;;;;;;;;;5097474;28;20267;-80
2022/10/11 01:39:45;;;;;;;2.58;1.60;;;;;;;;;;5096804;28;20195;-81
2022/10/11 01:42:14;;;;;;;3.67;1.92;;;;;;;;;;5097262;28;20274;-80
2022/10/11 01:44:44;;;;;;;2.83;1.65;;;;;;;;;;5097015;28;20259;-81
2022/10/11 01:47:13;;;;;;;3.20;1.58;;;;;;;;;;5097418;28;20181;-80
2022/10/11 01:49:41;;;;;;;5.63;2.40;;;;;;;;;;5097576;28;20208;-79
2022/10/11 01:52:10;;;;;;;6.25;2.35;;;;;;;;;;5097550;28;20295;-80
2022/10/11 01:54:49;;;;;;;5.85;2.75;;;;;;;;;;5097595;28;20222;-79
2022/10/11 01:57:50;;;;;;;6.40;2.38;;;;;;;;;;5097303;28;20189;-80
2022/10/11 02:00:20;;;;;;;4.25;2.60;;;;;;;;;;5097099;28;20220;-80
2022/10/11 02:03:04;;;;;;;3.53;2.45;;;;;;;;;;5076740;28;20197;-81
2022/10/11 02:05:39;;;;;;;5.53;2.92;;;;;;;;;;5076679;28;20225;-81
2022/10/11 02:08:13;;;;;;;4.28;2.30;;;;;;;;;;5076282;28;20200;-80
2022/10/11 02:10:44;;;;;;;6.45;2.75;;;;;;;;;;5076380;28;20189;-80
2022/10/11 02:13:16;;;;;;;7.15;2.67;;;;;;;;;;5076501;28;20209;-81
2022/10/11 02:15:44;;;;;;;3.58;2.28;;;;;;;;;;5076309;28;20311;-81
2022/10/11 02:18:18;;;;;;;3.60;2.70;;;;;;;;;;5075958;28;20652;-79
2022/10/11 02:20:46;;;;;;;2.00;1.80;;;;;;;;;;5076282;28;20307;-81
2022/10/11 02:23:17;;;;;;;3.15;2.00;;;;;;;;;;5076397;28;20228;-80
2022/10/11 02:25:46;;;;;;;4.05;2.10;;;;;;;;;;5076339;28;20227;-80
2022/10/11 02:28:17;;;;;;;4.03;2.35;;;;;;;;;;5076462;28;20710;-80
2022/10/11 02:30:47;;;;;;;6.28;2.85;;;;;;;;;;5079864;28;20214;-80
2022/10/11 02:33:21;;;;;;;1.40;1.33;;;;;;;;;;5096710;28;20204;-80
2022/10/11 02:35:54;;;;;;;2.78;1.63;;;;;;;;;;5096813;28;20227;-79
2022/10/11 02:38:26;;;;;;;1.65;1.50;;;;;;;;;;5096699;28;20188;-79
2022/10/11 02:40:57;;;;;;;2.42;1.77;;;;;;;;;;5096826;28;20188;-80
2022/10/11 02:43:35;;;;;;;3.95;1.90;;;;;;;;;;5096602;28;20651;-80
2022/10/11 02:46:03;;;;;;;5.03;2.65;;;;;;;;;;5097700;28;20573;-78
2022/10/11 02:48:34;;;;;;;3.50;2.08;;;;;;;;;;5095964;28;20199;-80
2022/10/11 02:51:03;;;;;;;3.80;2.10;;;;;;;;;;5097617;28;20230;-79
2022/10/11 02:53:31;;;;;;;4.28;3.05;;;;;;;;;;5095993;28;20741;-79
2022/10/11 02:55:58;;;;;;;4.85;2.65;;;;;;;;;;5096939;28;20256;-79
2022/10/11 02:58:26;;;;;;;4.32;2.58;;;;;;;;;;5095390;28;20288;-79
2022/10/11 03:00:53;;;;;;;3.83;2.40;;;;;;;;;;5096530;28;20692;-80
2022/10/11 03:03:21;;;;;;;7.32;2.85;;;;;;;;;;5096474;28;20216;-79
2022/10/11 03:05:49;;;;;;;2.92;2.00;;;;;;;;;;5096395;28;20243;-80
2022/10/11 03:08:18;;;;;;;11.65;2.92;;;;;;;;;;5095212;28;20720;-81
2022/10/11 03:10:45;;;;;;;4.32;2.20;;;;;;;;;;5096210;28;20632;-80
2022/10/11 03:13:13;;;;;;;3.05;2.35;;;;;;;;;;5096038;28;20312;-80
2022/10/11 03:15:40;;;;;;;4.43;1.95;;;;;;;;;;5095648;28;20310;-80
2022/10/11 03:18:08;;;;;;;4.57;2.40;;;;;;;;;;5094860;28;20299;-81
2022/10/11 03:20:35;;;;;;;2.20;1.63;;;;;;;;;;5095225;28;20291;-81
2022/10/11 03:23:04;;;;;;;3.83;2.08;;;;;;;;;;5095937;28;20724;-80
2022/10/11 03:25:31;;;;;;;1.33;1.23;;;;;;;;;;5095679;28;20288;-81
2022/10/11 03:27:59;;;;;;;2.08;1.88;;;;;;;;;;5095716;28;20724;-79
2022/10/11 03:30:27;;;;;;;2.38;1.83;;;;;;;;;;5095531;28;20287;-80
2022/10/11 03:32:54;;;;;;;6.38;2.38;;;;;;;;;;5095813;28;20227;-79
2022/10/11 03:35:22;;;;;;;4.90;1.77;;;;;;;;;;5095229;28;20266;-81
2022/10/11 03:37:50;;;;;;;7.90;2.22;;;;;;;;;;5096169;28;20239;-80
2022/10/11 03:40:19;;;;;;;4.00;2.22;;;;;;;;;;5096979;28;20676;-81
2022/10/11 03:42:46;;;;;;;4.60;2.25;;;;;;;;;;5095947;28;20287;-80
2022/10/11 03:45:14;;;;;;;5.72;2.30;;;;;;;;;;5095675;28;20243;-80
2022/10/11 03:47:41;;;;;;;2.88;1.92;;;;;;;;;;5096113;28;20236;-79
2022/10/11 03:50:10;;;;;;;3.50;2.03;;;;;;;;;;5096150;28;20242;-80
2022/10/11 03:52:38;;;;;;;3.45;1.90;;;;;;;;;;5096539;28;20200;-79
2022/10/11 03:55:06;;;;;;;4.07;1.50;;;;;;;;;;5099980;28;20609;-79
2022/10/11 03:57:35;;;;;;;2.95;1.67;;;;;;;;;;5099682;28;20200;-79
2022/10/11 04:00:03;;;;;;;3.17;1.80;;;;;;;;;;5099387;28;20286;-79
2022/10/11 04:02:30;;;;;;;4.60;1.88;;;;;;;;;;5099551;28;20340;-80
2022/10/11 04:04:58;;;;;;;3.90;1.27;;;;;;;;;;5100162;28;20242;-79
2022/10/11 04:07:25;;;;;;;2.50;1.42;;;;;;;;;;5115871;22;20324;-84
2022/10/11 04:09:53;;;;;;;1.50;1.40;;;;;;;;;;5080629;28;20201;-85
2022/10/11 04:12:20;;;;;;;4.95;1.75;;;;;;;;;;5082980;28;20227;-85
2022/10/11 04:14:49;;;;;;;2.63;2.42;;;;;;;;;;5083207;28;20303;-85
2022/10/11 04:17:17;;;;;;;3.20;1.50;;;;;;;;;;5080548;28;20236;-86
2022/10/11 04:19:45;;;;;;;2.67;1.63;;;;;;;;;;5080451;28;20231;-85
2022/10/11 04:22:12;;;;;;;3.17;1.70;;;;;;;;;;5079385;28;20201;-86
2022/10/11 04:24:40;;;;;;;3.60;2.40;;;;;;;;;;5080606;28;20723;-84
2022/10/11 04:27:07;;;;;;;3.60;1.85;;;;;;;;;;5080200;28;20197;-85
2022/10/11 04:29:35;;;;;;;4.82;1.73;;;;;;;;;;5080831;28;20221;-84
2022/10/11 04:32:04;;;;;;;6.03;2.00;;;;;;;;;;5081052;28;20656;-85
2022/10/11 04:34:31;;;;;;;4.10;2.22;;;;;;;;;;5080756;28;20308;-84
2022/10/11 04:36:59;;;;;;;4.75;1.98;;;;;;;;;;5080894;28;20227;-85
2022/10/11 04:39:26;;;;;;;4.18;2.42;;;;;;;;;;5080586;28;20256;-85
2022/10/11 04:41:54;;;;;;;4.65;2.80;;;;;;;;;;5080239;28;20288;-85
2022/10/11 04:44:21;;;;;;;10.20;3.28;;;;;;;;;;5079686;28;20247;-85
2022/10/11 04:46:49;;;;;;;3.75;3.13;;;;;;;;;;5079778;28;20270;-85
2022/10/11 04:49:18;;;;;;;4.15;2.20;;;;;;;;;;5079406;28;20676;-85
2022/10/11 04:51:47;;;;;;;5.38;2.75;;;;;;;;;;5080416;28;20224;-85
2022/10/11 04:54:14;;;;;;;4.43;3.97;;;;;;;;;;5083151;28;20278;-85
2022/10/11 04:56:42;;;;;;;6.15;2.78;;;;;;;;;;5079750;28;20246;-85
2022/10/11 04:59:09;;;;;;;5.85;3.50;;;;;;;;;;5079425;28;20707;-85
2022/10/11 05:01:37;;;;;;;6.03;3.53;;;;;;;;;;5068278;28;20288;-86
2022/10/11 05:04:05;;;;;;;6.30;3.08;;;;;;;;;;5060074;28;20237;-85
2022/10/11 05:06:34;;;;;;;5.65;3.42;;;;;;;;;;5058260;28;20632;-85
2022/10/11 05:09:01;;;;;;;4.28;2.85;;;;;;;;;;5058841;28;20604;-85
2022/10/11 05:11:29;;;;;;;4.63;4.03;;;;;;;;;;5058748;28;20240;-85
2022/10/11 05:13:56;;;;;;;6.72;3.40;;;;;;;;;;5058734;28;20202;-85
2022/10/11 05:16:24;;;;;;;5.97;3.63;;;;;;;;;;5058732;28;20222;-85
2022/10/11 05:18:52;;;;;;;10.18;4.22;;;;;;;;;;5058020;28;20221;-85
2022/10/11 05:21:22;;;;;;;8.35;3.70;;;;;;;;;;5059192;28;20212;-85
2022/10/11 05:23:54;;;;;;;5.82;3.65;;;;;;;;;;5058143;28;20667;-86
2022/10/11 05:26:23;;;;;;;6.70;3.95;;;;;;;;;;5059265;28;20232;-86
2022/10/11 05:28:51;;;;;;;8.98;4.85;;;;;;;;;;5059017;28;20248;-85
2022/10/11 05:31:18;;;;;;;8.43;4.40;;;;;;;;;;5066416;28;20197;-85
2022/10/11 05:33:46;;;;;;;9.05;3.92;;;;;;;;;;5078057;28;20284;-85
2022/10/11 05:36:14;;;;;;;7.72;4.75;;;;;;;;;;5076095;28;20225;-81
2022/10/11 05:38:41;;;;;;;9.38;4.88;;;;;;;;;;5076660;28;20299;-82
2022/10/11 05:41:14;;;;;;;6.80;3.25;;;;;;;;;;5076562;28;20292;-82
2022/10/11 05:43:43;;;;;;;7.03;4.25;;;;;;;;;;5076294;28;20209;-82
2022/10/11 05:46:11;;;;;;;4.32;3.53;;;;;;;;;;5076266;28;20204;-81
2022/10/11 05:48:38;;;;;;;9.40;4.68;;;;;;;;;;5075648;28;20289;-83
2022/10/11 05:51:09;;;;;;;7.28;4.13;;;;;;;;;;5075502;28;20639;-82
2022/10/11 05:53:37;;;;;;;7.47;4.82;;;;;;;;;;5075863;28;20203;-83
2022/10/11 05:56:05;;;;;;;9.60;5.78;;;;;;;;;;5076069;28;20221;-82
2022/10/11 05:58:34;;;;;;;9.05;4.90;;;;;;;;;;5075444;28;20231;-81
2022/10/11 06:01:02;;;;;;;8.55;4.93;;;;;;;;;;5074996;28;20204;-82
2022/10/11 06:03:29;;;;;;;7.53;4.93;;;;;;;;;;5074594;28;20208;-81
2022/10/11 06:05:57;;;;;;;7.25;4.55;;;;;;;;;;5075522;28;20284;-82
2022/10/11 06:08:24;;;;;;;8.43;4.53;;;;;;;;;;5074377;28;20229;-81
2022/10/11 06:10:52;;;;;;;8.73;5.32;;;;;;;;;;5075047;28;20288;-82
2022/10/11 06:13:19;;;;;;;6.00;3.95;;;;;;;;;;5075365;28;20265;-82
2022/10/11 06:15:48;;;;;;;7.20;4.70;;;;;;;;;;5074669;28;20221;-82
2022/10/11 06:18:16;;;;;;;7.35;3.85;;;;;;;;;;5074534;28;20248;-80
2022/10/11 06:20:43;;;;;;;6.72;4.32;;;;;;;;;;5067737;28;20644;-81
2022/10/11 06:23:11;;;;;;;8.68;3.63;;;;;;;;;;5063589;28;20674;-81
2022/10/11 06:25:38;;;;;;;6.40;3.65;;;;;;;;;;5062396;28;20204;-81
2022/10/11 06:28:06;;;;;;;6.30;3.22;;;;;;;;;;5054439;28;20224;-80
2022/10/11 06:30:34;;;;;;;6.05;3.55;;;;;;;;;;5056181;28;20284;-81
2022/10/11 06:33:03;;;;;;;3.42;2.70;;;;;;;;;;5074925;28;20251;-80
2022/10/11 06:35:30;;;;;;;5.40;2.85;;;;;;;;;;5074609;28;20246;-81
2022/10/11 06:37:58;;;;;;;7.13;3.03;;;;;;;;;;5073912;28;20252;-80
2022/10/11 06:40:25;;;;;;;4.55;3.42;;;;;;;;;;5074946;28;20201;-81
2022/10/11 06:42:53;;;;;;;8.60;4.10;;;;;;;;;;5075153;28;20299;-81
2022/10/11 06:45:20;;;;;;;4.60;3.42;;;;;;;;;;5074230;28;20197;-81
2022/10/11 06:47:47;;;;;;;6.68;3.22;;;;;;;;;;5074414;28;20308;-81
2022/10/11 06:50:17;;;;;;;2.42;2.22;;;;;;;;;;5074737;28;20291;-81
2022/10/11 06:52:44;;;;;;;3.65;2.53;;;;;;;;;;5075231;28;20284;-80
2022/10/11 06:55:11;;;;;;;3.85;2.83;;;;;;;;;;5074787;28;20299;-81
2022/10/11 06:57:39;;;;;;;2.78;2.58;;;;;;;;;;5069559;28;20301;-80
2022/10/11 07:00:08;;;;;;;3.08;2.67;;;;;;;;;;5054145;28;20760;-81
2022/10/11 07:02:36;;;;;;;2.85;1.98;;;;;;;;;;5073335;28;20296;-80
2022/10/11 07:05:03;;;;;;;3.00;2.42;;;;;;;;;;5074177;28;20289;-81
2022/10/11 07:07:32;;;;;;;2.97;2.67;;;;;;;;;;5074402;28;20201;-81
2022/10/11 07:10:00;;;;;;;4.18;2.50;;;;;;;;;;5074573;28;20232;-84
2022/10/11 07:12:27;;;;;;;3.47;2.65;;;;;;;;;;5075299;28;20292;-80
2022/10/11 07:14:55;;;;;;;3.42;2.47;;;;;;;;;;5074354;28;20201;-80
2022/10/11 07:17:22;;;;;;;5.35;3.38;;;;;;;;;;5073903;28;20257;-80
2022/10/11 07:19:50;;;;;;;3.42;2.75;;;;;;;;;;5073073;28;20297;-81
2022/10/11 07:22:17;;;;;;;4.13;2.13;;;;;;;;;;5073518;28;20205;-80
2022/10/11 07:24:47;;;;;;;1.98;1.80;;;;;;;;;;5073832;28;20211;-80
2022/10/11 07:27:15;;;;;;;3.00;2.20;;;;;;;;;;5073709;28;20205;-80
2022/10/11 07:29:42;;;;;;;3.78;2.00;;;;;;;;;;5076620;28;20197;-81
2022/10/11 07:32:10;;;;;;;3.65;3.35;;;;;;;;;;5077689;28;20205;-79
2022/10/11 07:34:37;;;;;;;5.75;3.20;;;;;;;;;;5077154;28;20204;-81
2022/10/11 07:37:05;;;;;;;5.50;3.65;;;;;;;;;;5077999;28;20258;-79
2022/10/11 07:39:32;;;;;;;6.35;3.28;;;;;;;;;;5077356;28;20225;-82
2022/10/11 07:42:01;;;;;;;5.35;3.00;;;;;;;;;;5077791;28;20296;-82
2022/10/11 07:44:29;;;;;;;6.82;3.35;;;;;;;;;;5077133;28;20284;-81
2022/10/11 07:46:57;;;;;;;4.22;2.88;;;;;;;;;;5077267;28;20262;-82
2022/10/11 07:49:24;;;;;;;3.13;2.33;;;;;;;;;;5076878;28;20252;-82
2022/10/11 07:51:52;;;;;;;3.58;2.38;;;;;;;;;;5072793;28;20201;-80
2022/10/11 07:54:19;;;;;;;5.95;3.33;;;;;;;;;;5067035;28;20678;-81
2022/10/11 07:56:47;;;;;;;5.13;2.38;;;;;;;;;;5064330;28;20308;-81
2022/10/11 07:59:15;;;;;;;5.53;3.53;;;;;;;;;;5056095;28;20221;-81
2022/10/11 08:01:43;;;;;;;5.18;3.45;;;;;;;;;;5071772;28;20201;-82
2022/10/11 08:04:11;;;;;;;4.60;3.58;;;;;;;;;;5075406;28;20205;-80
2022/10/11 08:06:38;;;;;;;7.25;4.50;;;;;;;;;;5075791;28;20201;-80
2022/10/11 08:09:06;;;;;;;2.83;2.45;;;;;;;;;;5075394;28;20315;-80
2022/10/11 08:11:36;;;;;;;5.38;4.35;;;;;;;;;;5076461;28;20251;-79
2022/10/11 08:14:07;;;;;;;5.13;2.80;;;;;;;;;;5069068;28;20198;-80
2022/10/11 08:16:36;;;;;;;4.95;3.13;;;;;;;;;;5056039;28;20754;-81
2022/10/11 08:19:04;;;;;;;5.75;5.25;;;;;;;;;;5055885;28;20304;-80
2022/10/11 08:21:32;;;;;;;4.32;3.92;;;;;;;;;;5055741;28;20637;-80
2022/10/11 08:24:01;;;;;;;13.93;12.63;;;;;;;;;;5075554;28;20214;-80
2022/10/11 08:26:29;;;;;;;9.57;6.10;;;;;;;;;;5075830;28;20284;-80
2022/10/11 08:28:57;;;;;;;4.38;3.97;;;;;;;;;;5075585;28;20603;-80
2022/10/11 08:31:24;;;;;;;5.10;2.90;;;;;;;;;;5075552;28;20660;-80
2022/10/11 08:33:53;;;;;;;3.28;2.85;;;;;;;;;;5075503;28;20243;-80
2022/10/11 08:36:21;;;;;;;3.08;2.72;;;;;;;;;;5076050;28;20215;-81
2022/10/11 08:38:48;;;;;;;9.00;3.50;;;;;;;;;;5075948;28;20762;-80
2022/10/11 08:41:30;;;;;;;2.70;2.00;;;;;;;;;;5074621;28;20197;-80
2022/10/11 08:44:22;;;;;;;3.50;2.20;;;;;;;;;;5076433;28;20221;-80
2022/10/11 08:46:53;;;;;;;2.53;1.95;;;;;;;;;;5076710;28;20197;-80
2022/10/11 08:49:27;;;;;;;2.63;2.20;;;;;;;;;;5075975;28;20303;-81
2022/10/11 08:52:01;;;;;;;4.32;3.45;;;;;;;;;;5076221;28;20594;-81
2022/10/11 08:54:38;;;;;;;4.78;2.25;;;;;;;;;;5076190;28;20267;-81
2022/10/11 08:57:07;;;;;;;3.25;2.70;;;;;;;;;;5076034;28;20979;-82
2022/10/11 08:59:44;;;;;;;5.22;3.50;;;;;;;;;;5076122;28;20284;-82
2022/10/11 09:02:24;;;;;;;4.43;2.70;;;;;;;;;;5075783;28;20581;-81
2022/10/11 09:04:55;;;;;;;6.10;2.72;;;;;;;;;;5076183;28;20236;-81
2022/10/11 09:07:35;;;;;;;5.22;2.60;;;;;;;;;;5075391;28;20783;-82
2022/10/11 09:10:18;;;;;;;3.40;2.45;;;;;;;;;;5075869;28;20211;-81
2022/10/11 09:12:55;;;;;;;4.28;2.15;;;;;;;;;;5076006;28;20201;-81
2022/10/11 09:15:30;;;;;;;2.47;2.13;;;;;;;;;;5075745;28;20207;-81
2022/10/11 09:18:20;;;;;;;3.63;2.22;;;;;;;;;;5075331;28;20688;-79
2022/10/11 09:20:56;;;;;;;4.63;2.53;;;;;;;;;;5075746;28;20215;-80
2022/10/11 09:23:40;;;;;;;5.10;2.67;;;;;;;;;;5075744;28;20644;-81
2022/10/11 09:26:12;;;;;;;1.98;1.83;;;;;;;;;;5075727;28;20642;-82
2022/10/11 09:28:50;;;;;;;3.38;2.30;;;;;;;;;;5075804;28;20308;-83
2022/10/11 09:31:18;;;;;;;2.72;2.10;;;;;;;;;;5075163;28;20211;-82
2022/10/11 09:33:49;;;;;;;3.53;2.22;;;;;;;;;;5075596;28;20553;-82
2022/10/11 09:36:25;;;;;;;4.07;2.63;;;;;;;;;;5075420;28;20751;-81
2022/10/11 09:38:57;;;;;;;4.43;2.17;;;;;;;;;;5075028;28;20228;-80
2022/10/11 09:41:30;;;;;;;5.78;2.38;;;;;;;;;;5075406;28;20584;-81
2022/10/11 09:43:57;;;;;;;2.05;1.73;;;;;;;;;;5075951;28;20711;-82
2022/10/11 09:46:32;;;;;;;5.50;2.28;;;;;;;;;;5074917;28;20284;-82
2022/10/11 09:49:03;;;;;;;3.83;2.30;;;;;;;;;;5075340;28;20597;-82
2022/10/11 09:51:33;;;;;;;5.68;2.40;;;;;;;;;;5074915;28;20560;-81
2022/10/11 09:54:03;;;;;;;3.83;2.35;;;;;;;;;;5074158;28;20265;-82
2022/10/11 09:56:34;;;;;;;3.90;2.40;;;;;;;;;;5074480;28;20480;-81
2022/10/11 09:59:19;;;;;;;4.03;2.17;;;;;;;;;;5073627;28;20308;-82
2022/10/11 10:01:47;;;;;;;1.92;1.60;;;;;;;;;;5074285;28;20201;-80
2022/10/11 10:04:17;;;;;;;5.50;1.83;;;;;;;;;;5073902;28;20637;-81
2022/10/11 10:06:45;;;;;;;3.42;2.00;;;;;;;;;;5074632;28;20235;-83
2022/10/11 10:09:25;;;;;;;3.15;1.52;;;;;;;;;;5073651;28;20727;-81
2022/10/11 10:11:53;;;;;;;2.40;1.70;;;;;;;;;;5074265;28;20202;-83
2022/10/11 10:14:24;;;;;;;3.60;2.42;;;;;;;;;;5074531;28;20312;-81
2022/10/11 10:17:01;;;;;;;7.05;2.58;;;;;;;;;;5075426;28;20215;-82
2022/10/11 10:19:29;;;;;;;3.42;1.75;;;;;;;;;;5074647;28;20716;-82
2022/10/11 10:21:58;;;;;;;5.85;2.47;;;;;;;;;;5077317;28;20296;-83
2022/10/11 10:24:38;;;;;;;5.18;1.65;;;;;;;;;;5075845;28;20292;-82
2022/10/11 10:27:16;;;;;;;2.08;1.67;;;;;;;;;;5074891;28;20208;-81
2022/10/11 10:29:44;;;;;;;3.10;1.63;;;;;;;;;;5074833;28;20200;-83
2022/10/11 10:32:14;;;;;;;3.25;1.77;;;;;;;;;;5075059;28;20211;-83
2022/10/11 10:34:53;;;;;;;4.72;1.73;;;;;;;;;;5074777;28;20196;-82
2022/10/11 10:37:27;;;;;;;4.13;2.33;;;;;;;;;;5075286;28;20749;-83
2022/10/11 10:39:59;;;;;;;2.83;1.77;;;;;;;;;;5074807;28;20205;-82
2022/10/11 10:42:26;;;;;;;3.90;1.80;;;;;;;;;;5075132;28;20301;-83
2022/10/11 10:44:57;;;;;;;3.92;1.70;;;;;;;;;;5074883;28;20292;-82
2022/10/11 10:47:43;;;;;;;6.03;2.53;;;;;;;;;;5088308;28;20743;-82
2022/10/11 10:50:16;;;;;;;1.58;1.38;;;;;;;;;;5091184;28;20642;-82
2022/10/11 10:53:05;;;;;;;2.40;1.40;;;;;;;;;;5091764;28;20260;-82
2022/10/11 10:55:40;;;;;;;1.83;1.30;;;;;;;;;;5091028;28;20264;-82
2022/10/11 10:58:26;;;;;;;2.38;1.50;;;;;;;;;;5090024;28;20283;-81
2022/10/11 11:00:58;;;;;;;3.83;1.50;;;;;;;;;;5082875;28;20251;-82
2022/10/11 11:03:34;;;;;;;3.55;1.92;;;;;;;;;;5079134;28;20233;-83
2022/10/11 11:06:05;;;;;;;3.30;1.70;;;;;;;;;;5080634;28;20235;-84
2022/10/11 11:08:48;;;;;;;1.70;1.15;;;;;;;;;;5078745;28;20315;-84
2022/10/11 11:11:32;;;;;;;1.77;1.25;;;;;;;;;;5078664;28;20209;-84
2022/10/11 11:14:10;;;;;;;5.65;1.90;;;;;;;;;;5077000;28;20300;-85
2022/10/11 11:16:45;;;;;;;3.55;2.10;;;;;;;;;;5077849;28;20223;-85
2022/10/11 11:19:27;;;;;;;2.47;1.52;;;;;;;;;;5077875;28;20230;-84
2022/10/11 11:21:59;;;;;;;2.63;1.52;;;;;;;;;;5076319;28;20208;-82
2022/10/11 11:24:40;;;;;;;2.80;1.88;;;;;;;;;;5076643;28;20291;-82
2022/10/11 11:27:13;;;;;;;5.85;2.03;;;;;;;;;;5077038;28;20207;-83
2022/10/11 11:29:49;;;;;;;2.58;1.88;;;;;;;;;;5076218;28;20637;-83
2022/10/11 11:32:25;;;;;;;2.63;1.50;;;;;;;;;;5076900;28;20200;-82
2022/10/11 11:34:57;;;;;;;2.17;1.45;;;;;;;;;;5076486;28;20207;-83
2022/10/11 11:37:28;;;;;;;4.85;1.80;;;;;;;;;;5076089;28;20251;-83
2022/10/11 11:40:02;;;;;;;11.30;3.08;;;;;;;;;;5075462;28;20224;-83
2022/10/11 11:42:34;;;;;;;4.13;1.63;;;;;;;;;;5075679;28;20193;-81
2022/10/11 11:45:05;;;;;;;4.30;1.80;;;;;;;;;;5075301;28;20212;-83
2022/10/11 11:47:36;;;;;;;3.22;1.60;;;;;;;;;;5074236;28;20205;-83
2022/10/11 11:50:19;;;;;;;1.30;1.20;;;;;;;;;;5074461;28;20197;-81
2022/10/11 11:52:50;;;;;;;2.28;1.08;;;;;;;;;;5074513;28;20215;-83
2022/10/11 11:55:23;;;;;;;1.17;1.00;;;;;;;;;;5074964;28;20195;-81
2022/10/11 11:58:00;;;;;;;2.42;1.20;;;;;;;;;;5075300;28;20247;-82
2022/10/11 12:00:32;;;;;;;2.42;1.40;;;;;;;;;;5074482;28;20201;-83
2022/10/11 12:03:02;;;;;;;3.25;1.30;;;;;;;;;;5075227;28;20199;-83
2022/10/11 12:05:33;;;;;;;3.72;2.03;;;;;;;;;;5074452;28;20258;-81
2022/10/11 12:08:04;;;;;;;2.10;1.58;;;;;;;;;;5074394;28;20651;-82
2022/10/11 12:10:37;;;;;;;1.58;1.05;;;;;;;;;;5074415;28;20661;-81
2022/10/11 12:13:18;;;;;;;3.83;1.80;;;;;;;;;;5074839;28;20202;-82
2022/10/11 12:16:09;;;;;;;6.20;2.30;;;;;;;;;;5056997;28;20204;-83
2022/10/11 12:18:50;;;;;;;6.43;2.03;;;;;;;;;;5057572;28;20221;-81
2022/10/11 12:21:27;;;;;;;4.35;2.88;;;;;;;;;;5057455;28;20562;-82
2022/10/11 12:23:57;;;;;;;3.20;1.50;;;;;;;;;;5077497;28;20204;-81
2022/10/11 12:26:42;;;;;;;2.35;1.40;;;;;;;;;;5078589;28;20220;-82
2022/10/11 12:29:46;;;;;;;2.53;1.60;;;;;;;;;;5078594;28;20697;-83
2022/10/11 12:32:50;;;;;;;4.88;2.00;;;;;;;;;;5079363;28;20270;-83
2022/10/11 12:35:47;;;;;;;4.40;1.98;;;;;;;;;;5079098;28;20212;-83
2022/10/11 12:38:19;;;;;;;5.18;2.75;;;;;;;;;;5078001;28;20227;-82
2022/10/11 12:40:48;;;;;;;4.57;2.03;;;;;;;;;;5077730;28;20240;-81
2022/10/11 12:43:36;;;;;;;5.65;1.80;;;;;;;;;;5080461;28;20688;-83
2022/10/11 12:46:56;;;;;;;1.70;1.30;;;;;;;;;;5079926;28;20201;-83
2022/10/11 12:49:32;;;;;;;1.65;1.23;;;;;;;;;;5079498;28;20708;-83
2022/10/11 12:52:02;;;;;;;3.33;1.52;;;;;;;;;;5078862;28;20200;-83
2022/10/11 12:55:03;;;;;;;3.67;1.50;;;;;;;;;;5079528;28;20200;-83
2022/10/11 12:58:26;;;;;;;1.10;1.00;;;;;;;;;;5079881;28;20288;-83
2022/10/11 13:01:16;;;;;;;1.13;0.95;;;;;;;;;;5067982;28;20292;-82
2022/10/11 13:03:51;;;;;;;2.15;1.40;;;;;;;;;;5079766;28;20201;-83
2022/10/11 13:06:23;;;;;;;0.70;0.70;;;;;;;;;;5079528;28;20783;-83
2022/10/11 13:08:55;;;;;;;1.10;1.10;;;;;;;;;;5078041;28;20225;-82
2022/10/11 13:11:27;;;;;;;1.35;1.23;;;;;;;;;;5079080;28;20652;-83
2022/10/11 13:13:56;;;;;;;1.77;1.30;;;;;;;;;;5078857;28;20213;-83
2022/10/11 13:16:28;;;;;;;2.97;1.88;;;;;;;;;;5078397;28;20207;-82
2022/10/11 13:18:59;;;;;;;2.45;1.33;;;;;;;;;;5078816;28;20288;-83
2022/10/11 13:21:31;;;;;;;3.00;1.65;;;;;;;;;;5078472;28;20664;-83
2022/10/11 13:24:02;;;;;;;1.27;1.17;;;;;;;;;;5059480;28;20200;-83
2022/10/11 13:26:31;;;;;;;2.33;1.25;;;;;;;;;;5058883;28;20469;-83
2022/10/11 13:29:00;;;;;;;6.00;2.03;;;;;;;;;;5059302;28;20218;-83
2022/10/11 13:31:29;;;;;;;1.42;1.08;;;;;;;;;;5066635;28;20212;-83
2022/10/11 13:33:59;;;;;;;1.33;1.00;;;;;;;;;;5078202;28;20208;-82
2022/10/11 13:36:27;;;;;;;2.30;1.20;;;;;;;;;;5078311;28;20203;-82
2022/10/11 13:38:57;;;;;;;4.50;1.45;;;;;;;;;;5077868;28;20764;-83
2022/10/11 13:41:28;;;;;;;3.92;1.73;;;;;;;;;;5077366;28;20291;-83
2022/10/11 13:43:56;;;;;;;2.72;1.55;;;;;;;;;;5077965;28;20197;-82
2022/10/11 13:46:27;;;;;;;1.10;0.90;;;;;;;;;;5076765;28;20220;-81
2022/10/11 13:49:04;;;;;;;2.47;1.20;;;;;;;;;;5075829;28;20221;-84
2022/10/11 13:51:34;;;;;;;3.15;1.08;;;;;;;;;;5075558;28;20208;-83
2022/10/11 13:54:04;;;;;;;1.23;1.13;;;;;;;;;;5075530;28;20240;-82
2022/10/11 13:56:35;;;;;;;1.63;1.13;;;;;;;;;;5075482;28;20232;-83
2022/10/11 13:59:03;;;;;;;3.08;1.55;;;;;;;;;;5074942;28;20260;-83
2022/10/11 14:01:39;;;;;;;2.13;1.27;;;;;;;;;;5075324;28;20335;-82
2022/10/11 14:04:09;;;;;;;2.97;1.58;;;;;;;;;;5075597;28;20680;-83
2022/10/11 14:06:45;;;;;;;2.38;1.58;;;;;;;;;;5075553;28;20681;-81
2022/10/11 14:09:20;;;;;;;6.15;2.00;;;;;;;;;;5075881;28;20299;-82
2022/10/11 14:11:48;;;;;;;1.33;1.05;;;;;;;;;;5075653;28;20204;-83
2022/10/11 14:14:39;;;;;;;2.22;1.77;;;;;;;;;;5076020;28;20200;-82
2022/10/11 14:17:15;;;;;;;2.78;1.52;;;;;;;;;;5075298;28;20200;-83
2022/10/11 14:19:46;;;;;;;2.83;1.40;;;;;;;;;;5074404;28;20225;-81
2022/10/11 14:22:15;;;;;;;4.00;1.75;;;;;;;;;;5074417;28;20244;-82
2022/10/11 14:24:43;;;;;;;4.55;1.75;;;;;;;;;;5075059;28;20288;-81
2022/10/11 14:27:18;;;;;;;3.92;1.60;;;;;;;;;;5074688;28;20208;-81
2022/10/11 14:29:46;;;;;;;3.80;1.45;;;;;;;;;;5074302;28;20204;-82
2022/10/11 14:32:16;;;;;;;5.18;2.38;;;;;;;;;;5074177;28;20292;-82
2022/10/11 14:34:47;;;;;;;2.42;1.58;;;;;;;;;;5074998;28;20291;-83
2022/10/11 14:37:16;;;;;;;2.72;1.75;;;;;;;;;;5074509;28;20204;-82
2022/10/11 14:39:43;;;;;;;4.75;1.23;;;;;;;;;;5073335;28;20207;-82
2022/10/11 14:42:11;;;;;;;2.72;1.65;;;;;;;;;;5074109;28;20649;-82
2022/10/11 14:44:39;;;;;;;1.70;1.60;;;;;;;;;;5073737;28;20656;-82
2022/10/11 14:47:07;;;;;;;3.35;1.25;;;;;;;;;;5073977;28;20211;-84
2022/10/11 14:49:37;;;;;;;1.85;1.40;;;;;;;;;;5074417;28;20229;-83
2022/10/11 14:52:10;;;;;;;3.03;1.50;;;;;;;;;;5073292;28;20205;-83
2022/10/11 14:54:38;;;;;;;2.42;1.52;;;;;;;;;;5075364;28;20587;-82
2022/10/11 14:57:06;;;;;;;1.55;1.13;;;;;;;;;;5074494;28;20212;-82
2022/10/11 14:59:36;;;;;;;2.13;1.40;;;;;;;;;;5073637;28;20345;-83
2022/10/11 15:02:06;;;;;;;1.63;1.15;;;;;;;;;;5074568;28;20229;-82
2022/10/11 15:04:34;;;;;;;1.10;1.08;;;;;;;;;;5074152;28;20205;-82
2022/10/11 15:07:02;;;;;;;1.90;1.23;;;;;;;;;;5075048;28;20641;-83
2022/10/11 15:09:31;;;;;;;1.40;1.30;;;;;;;;;;5074732;28;20600;-82
2022/10/11 15:11:59;;;;;;;1.75;1.30;;;;;;;;;;5074648;28;20283;-82